createdAt,value
2019-03-23T00:00:31.913Z,82.67
2019-03-23T00:03:03.676Z,83.40
2019-03-23T00:05:35.050Z,75.20
2019-03-23T00:08:07.408Z,89.23
2019-03-23T00:10:40.007Z,86.40
2019-03-23T00:13:12.878Z,88.70
2019-03-23T00:15:44.843Z,84.13
2019-03-23T00:18:17.077Z,85.07
2019-03-23T00:20:48.919Z,91.03
2019-03-23T00:23:20.593Z,88.37
2019-03-23T00:25:52.517Z,86.00
2019-03-23T00:28:24.568Z,87.07
2019-03-23T00:30:56.990Z,98.00
2019-03-23T00:33:28.507Z,99.90
2019-03-23T00:36:00.639Z,91.70
2019-03-23T00:38:32.908Z,94.97
2019-03-23T00:41:04.965Z,91.20
2019-03-23T00:43:37.313Z,93.60
2019-03-23T00:46:10.106Z,94.33
2019-03-23T00:48:44.000Z,93.20
2019-03-23T00:51:16.678Z,90.57
2019-03-23T00:53:48.718Z,97.50
2019-03-23T00:56:21.515Z,95.70
2019-03-23T00:58:52.998Z,97.37
2019-03-23T01:01:24.847Z,91.83
2019-03-23T01:03:57.076Z,99.97
2019-03-23T01:06:28.869Z,95.20
2019-03-23T01:09:00.428Z,88.23
2019-03-23T01:11:32.390Z,95.33
2019-03-23T01:14:04.039Z,80.77
2019-03-23T01:16:36.786Z,93.50
2019-03-23T01:19:09.450Z,99.10
2019-03-23T01:21:41.541Z,95.33
2019-03-23T01:24:13.306Z,94.93
2019-03-23T01:26:45.228Z,83.50
2019-03-23T01:29:17.828Z,76.87
2019-03-23T01:31:49.842Z,82.07
2019-03-23T01:34:22.466Z,91.83
2019-03-23T01:37:02.425Z,85.63
2019-03-23T01:39:27.543Z,84.83
2019-03-23T01:41:59.547Z,82.87
2019-03-23T01:44:32.120Z,85.60
2019-03-23T01:47:04.065Z,91.63
2019-03-23T01:49:35.627Z,82.13
2019-03-23T01:52:07.469Z,83.93
2019-03-23T01:54:39.272Z,81.87
2019-03-23T01:57:12.103Z,79.13
2019-03-23T01:59:44.505Z,74.77
2019-03-23T02:02:16.588Z,82.23
2019-03-23T02:04:49.031Z,98.63
2019-03-23T02:07:21.560Z,73.73
2019-03-23T02:09:54.080Z,85.40
2019-03-23T02:12:26.560Z,77.00
2019-03-23T02:14:59.068Z,82.83
2019-03-23T02:17:31.627Z,74.33
2019-03-23T02:20:04.382Z,86.50
2019-03-23T02:22:36.471Z,80.07
2019-03-23T02:25:08.673Z,79.93
2019-03-23T02:27:40.557Z,72.83
2019-03-23T02:30:13.445Z,69.90
2019-03-23T02:32:45.750Z,82.77
2019-03-23T02:35:18.180Z,69.57
2019-03-23T02:37:49.631Z,71.67
2019-03-23T02:40:20.947Z,74.93
2019-03-23T02:42:52.985Z,66.60
2019-03-23T02:45:25.234Z,68.50
2019-03-23T02:47:57.039Z,80.30
2019-03-23T02:50:29.044Z,69.47
2019-03-23T02:53:01.514Z,71.83
2019-03-23T02:55:37.268Z,76.20
2019-03-23T02:58:11.109Z,83.43
2019-03-23T03:00:44.353Z,73.23
2019-03-23T03:03:16.984Z,72.17
2019-03-23T03:05:49.049Z,63.33
2019-03-23T03:08:21.675Z,76.27
2019-03-23T03:10:55.116Z,71.80
2019-03-23T03:13:28.040Z,76.33
2019-03-23T03:16:00.028Z,66.13
2019-03-23T03:18:32.318Z,68.93
2019-03-23T03:21:04.607Z,70.40
2019-03-23T03:23:36.516Z,71.77
2019-03-23T03:26:11.426Z,63.70
2019-03-23T03:28:43.785Z,69.13
2019-03-23T03:31:15.353Z,65.03
2019-03-23T03:33:47.971Z,77.03
2019-03-23T03:36:19.910Z,74.17
2019-03-23T03:38:51.792Z,70.83
2019-03-23T03:41:23.627Z,83.70
2019-03-23T03:43:55.532Z,72.13
2019-03-23T03:46:27.711Z,72.07
2019-03-23T03:49:11.772Z,70.30
2019-03-23T03:51:32.842Z,71.03
2019-03-23T03:54:05.153Z,65.23
2019-03-23T03:56:37.764Z,81.30
2019-03-23T03:59:10.027Z,80.70
2019-03-23T04:01:42.211Z,85.27
2019-03-23T04:04:14.240Z,85.17
2019-03-23T04:06:46.476Z,81.87
2019-03-23T04:09:18.543Z,80.30
2019-03-23T04:11:50.623Z,82.73
2019-03-23T04:14:23.919Z,85.40
2019-03-23T04:16:56.033Z,81.87
2019-03-23T04:19:27.768Z,78.33
2019-03-23T04:22:02.376Z,70.53
2019-03-23T04:24:34.436Z,74.87
2019-03-23T04:27:07.393Z,78.30
2019-03-23T04:29:39.406Z,75.80
2019-03-23T04:32:11.068Z,80.53
2019-03-23T04:34:43.388Z,74.43
2019-03-23T04:37:15.285Z,74.33
2019-03-23T04:39:48.071Z,78.07
2019-03-23T04:42:20.628Z,70.83
2019-03-23T04:44:52.427Z,75.77
2019-03-23T04:47:25.217Z,78.47
2019-03-23T04:49:57.307Z,76.93
2019-03-23T04:52:29.552Z,83.60
2019-03-23T04:55:01.025Z,76.17
2019-03-23T04:57:32.666Z,75.87
2019-03-23T05:00:05.201Z,71.30
2019-03-23T05:02:37.538Z,81.67
2019-03-23T05:05:11.201Z,85.57
2019-03-23T05:07:43.099Z,91.43
2019-03-23T05:10:15.877Z,85.27
2019-03-23T05:12:47.743Z,110.57
2019-03-23T05:15:19.904Z,108.10
2019-03-23T05:17:52.229Z,85.43
2019-03-23T05:20:35.787Z,76.23
2019-03-23T05:23:07.926Z,82.77
2019-03-23T05:25:40.198Z,76.83
2019-03-23T05:28:12.104Z,81.73
2019-03-23T05:30:44.105Z,82.10
2019-03-23T05:33:15.968Z,74.13
2019-03-23T05:35:47.908Z,95.63
2019-03-23T05:38:20.746Z,84.47
2019-03-23T05:40:53.625Z,76.53
2019-03-23T05:43:25.884Z,81.10
2019-03-23T05:45:58.439Z,81.13
2019-03-23T05:48:31.171Z,80.23
2019-03-23T05:51:05.143Z,81.33
2019-03-23T05:53:37.884Z,82.23
2019-03-23T05:56:10.069Z,83.83
2019-03-23T05:58:41.759Z,88.27
2019-03-23T06:01:13.678Z,81.03
2019-03-23T06:03:45.794Z,82.73
2019-03-23T06:06:19.776Z,87.90
2019-03-23T06:08:55.257Z,86.10
2019-03-23T06:11:25.789Z,83.83
2019-03-23T06:13:58.547Z,90.90
2019-03-23T06:16:30.683Z,90.33
2019-03-23T06:19:02.280Z,88.63
2019-03-23T06:21:35.360Z,96.70
2019-03-23T06:24:07.225Z,97.83
2019-03-23T06:26:39.164Z,98.77
2019-03-23T06:29:13.272Z,93.03
2019-03-23T06:31:46.082Z,99.57
2019-03-23T06:34:18.921Z,92.13
2019-03-23T06:36:53.727Z,102.47
2019-03-23T06:39:28.117Z,102.87
2019-03-23T06:41:59.435Z,94.77
2019-03-23T06:44:31.573Z,91.47
2019-03-23T06:47:02.957Z,96.13
2019-03-23T06:49:37.916Z,85.57
2019-03-23T06:52:11.163Z,89.90
2019-03-23T06:54:43.196Z,78.07
2019-03-23T06:57:19.163Z,79.97
2019-03-23T06:59:51.369Z,77.73
2019-03-23T07:02:23.807Z,77.77
2019-03-23T07:04:56.001Z,67.67
2019-03-23T07:07:27.878Z,73.40
2019-03-23T07:09:59.525Z,72.60
2019-03-23T07:12:31.561Z,73.27
2019-03-23T07:15:04.735Z,68.30
2019-03-23T07:17:36.616Z,70.70
2019-03-23T07:20:09.771Z,63.90
2019-03-23T07:22:41.492Z,63.53
2019-03-23T07:25:14.213Z,61.10
2019-03-23T07:27:47.601Z,61.90
2019-03-23T07:30:19.729Z,63.03
2019-03-23T07:32:51.748Z,61.33
2019-03-23T07:35:23.764Z,63.20
2019-03-23T07:37:55.762Z,64.30
2019-03-23T07:40:28.071Z,62.13
2019-03-23T07:43:00.928Z,59.17
2019-03-23T07:45:33.869Z,66.63
2019-03-23T07:48:05.363Z,60.23
2019-03-23T07:50:37.442Z,60.50
2019-03-23T07:53:09.157Z,58.10
2019-03-23T07:55:41.567Z,58.80
2019-03-23T07:58:13.882Z,61.33
2019-03-23T08:00:45.770Z,60.40
2019-03-23T08:03:18.281Z,58.50
2019-03-23T08:05:51.127Z,58.43
2019-03-23T08:08:23.715Z,56.47
2019-03-23T08:10:55.528Z,58.00
2019-03-23T08:13:28.762Z,53.50
2019-03-23T08:16:01.079Z,54.60
2019-03-23T08:18:32.939Z,52.33
2019-03-23T08:21:04.725Z,53.97
2019-03-23T08:23:36.522Z,60.00
2019-03-23T08:26:08.719Z,54.40
2019-03-23T08:28:40.375Z,53.37
2019-03-23T08:31:12.275Z,57.10
2019-03-23T08:33:44.435Z,57.80
2019-03-23T08:36:17.663Z,58.13
2019-03-23T08:38:51.675Z,57.47
2019-03-23T08:41:23.881Z,56.83
2019-03-23T08:43:58.078Z,58.20
2019-03-23T08:46:29.993Z,59.30
2019-03-23T08:49:02.241Z,55.13
2019-03-23T08:51:36.259Z,56.83
2019-03-23T08:54:09.048Z,57.10
2019-03-23T08:56:41.206Z,54.60
2019-03-23T08:59:13.800Z,57.10
2019-03-23T09:01:45.923Z,59.20
2019-03-23T09:04:17.882Z,50.70
2019-03-23T09:06:49.439Z,55.03
2019-03-23T09:09:22.003Z,54.50
2019-03-23T09:11:53.875Z,56.03
2019-03-23T09:14:25.441Z,52.53
2019-03-23T09:16:57.179Z,52.77
2019-03-23T09:19:29.012Z,52.30
2019-03-23T09:22:00.980Z,55.80
2019-03-23T09:24:34.009Z,55.00
2019-03-23T09:27:07.107Z,53.33
2019-03-23T09:29:38.884Z,51.20
2019-03-23T09:32:10.954Z,49.73
2019-03-23T09:34:42.413Z,49.17
2019-03-23T09:37:13.770Z,48.40
2019-03-23T09:39:45.144Z,48.97
2019-03-23T09:42:17.276Z,49.00
2019-03-23T09:44:48.647Z,48.40
2019-03-23T09:47:20.136Z,48.57
2019-03-23T09:49:51.906Z,48.27
2019-03-23T09:52:23.538Z,47.37
2019-03-23T09:54:54.741Z,49.80
2019-03-23T09:57:26.108Z,48.77
2019-03-23T09:59:57.649Z,46.60
2019-03-23T10:02:28.882Z,46.00
2019-03-23T10:05:00.316Z,46.87
2019-03-23T10:07:32.348Z,48.80
2019-03-23T10:10:05.851Z,50.00
2019-03-23T10:12:38.260Z,48.63
2019-03-23T10:15:10.410Z,47.40
2019-03-23T10:17:42.811Z,48.77
2019-03-23T10:20:15.235Z,48.97
2019-03-23T10:22:46.685Z,48.53
2019-03-23T10:25:19.122Z,47.40
2019-03-23T10:27:51.837Z,49.67
2019-03-23T10:30:24.627Z,47.60
2019-03-23T10:32:56.561Z,47.53
2019-03-23T10:35:28.505Z,50.03
2019-03-23T10:38:00.149Z,48.23
2019-03-23T10:40:32.965Z,48.47
2019-03-23T10:43:04.801Z,49.03
2019-03-23T10:45:44.165Z,48.57
2019-03-23T10:48:12.200Z,47.53
2019-03-23T10:50:44.712Z,48.07
2019-03-23T10:53:22.947Z,46.20
2019-03-23T10:55:49.646Z,45.43
2019-03-23T10:58:22.221Z,46.63
2019-03-23T11:00:54.601Z,45.73
2019-03-23T11:03:26.145Z,46.30
2019-03-23T11:05:58.962Z,42.90
2019-03-23T11:08:30.884Z,43.03
2019-03-23T11:11:02.719Z,43.67
2019-03-23T11:13:34.825Z,45.60
2019-03-23T11:16:07.127Z,44.70
2019-03-23T11:18:39.151Z,43.50
2019-03-23T11:21:11.039Z,41.60
2019-03-23T11:23:45.504Z,43.77
2019-03-23T11:26:18.363Z,41.10
2019-03-23T11:28:51.779Z,43.20
2019-03-23T11:31:23.967Z,42.48
2019-03-23T11:33:56.603Z,39.55
2019-03-23T11:36:28.529Z,37.97
2019-03-23T11:39:00.241Z,36.35
2019-03-23T11:41:31.823Z,36.13
2019-03-23T11:44:03.724Z,36.13
2019-03-23T11:46:36.086Z,34.83
2019-03-23T11:49:07.521Z,33.23
2019-03-23T11:51:39.921Z,36.35
2019-03-23T11:54:12.555Z,34.43
2019-03-23T11:56:44.628Z,36.33
2019-03-23T11:59:16.761Z,35.80
2019-03-23T12:01:52.002Z,35.38
2019-03-23T12:04:24.862Z,33.18
2019-03-23T12:06:55.801Z,36.65
2019-03-23T12:09:27.477Z,30.88
2019-03-23T12:12:00.079Z,30.55
2019-03-23T12:14:31.545Z,29.42
2019-03-23T12:17:03.721Z,30.70
2019-03-23T12:19:35.351Z,30.80
2019-03-23T12:22:06.965Z,29.87
2019-03-23T12:24:39.562Z,29.18
2019-03-23T12:27:12.327Z,29.87
2019-03-23T12:29:44.851Z,29.77
2019-03-23T12:32:17.044Z,29.63
2019-03-23T12:34:49.648Z,28.87
2019-03-23T12:37:21.969Z,29.82
2019-03-23T12:39:54.313Z,30.05
2019-03-23T12:42:25.949Z,30.43
2019-03-23T12:44:57.762Z,28.50
2019-03-23T12:47:29.378Z,27.58
2019-03-23T12:50:01.560Z,24.97
2019-03-23T12:52:33.715Z,30.37
2019-03-23T12:55:05.819Z,26.27
2019-03-23T12:57:37.602Z,24.73
2019-03-23T13:00:11.721Z,24.40
2019-03-23T13:02:43.484Z,22.93
2019-03-23T13:05:15.665Z,24.27
2019-03-23T13:07:49.321Z,25.70
2019-03-23T13:10:20.917Z,22.80
2019-03-23T13:12:53.484Z,23.73
2019-03-23T13:15:25.403Z,23.70
2019-03-23T13:17:57.550Z,23.57
2019-03-23T13:20:30.116Z,24.10
2019-03-23T13:23:02.580Z,23.83
2019-03-23T13:25:34.109Z,26.10
2019-03-23T13:28:06.231Z,23.83
2019-03-23T13:30:37.605Z,22.97
2019-03-23T13:33:09.489Z,23.20
2019-03-23T13:35:40.892Z,23.63
2019-03-23T13:38:12.750Z,22.80
2019-03-23T13:40:45.441Z,21.87
2019-03-23T13:43:17.280Z,21.50
2019-03-23T13:45:48.725Z,21.30
2019-03-23T13:48:20.681Z,22.67
2019-03-23T13:50:53.168Z,21.87
2019-03-23T13:53:26.367Z,21.43
2019-03-23T13:55:58.246Z,22.37
2019-03-23T13:58:31.820Z,22.40
2019-03-23T14:01:03.823Z,23.83
2019-03-23T14:03:36.104Z,23.93
2019-03-23T14:06:07.735Z,22.40
2019-03-23T14:08:39.817Z,23.83
2019-03-23T14:11:11.601Z,24.07
2019-03-23T14:13:43.074Z,23.80
2019-03-23T14:16:15.547Z,23.27
2019-03-23T14:18:47.401Z,23.47
2019-03-23T14:21:19.328Z,24.03
2019-03-23T14:23:51.423Z,23.10
2019-03-23T14:26:23.713Z,22.80
2019-03-23T14:28:55.645Z,20.97
2019-03-23T14:31:29.714Z,21.33
2019-03-23T14:34:02.131Z,22.50
2019-03-23T14:36:34.440Z,20.03
2019-03-23T14:39:07.569Z,21.17
2019-03-23T14:41:39.644Z,20.97
2019-03-23T14:44:12.827Z,22.43
2019-03-23T14:46:46.867Z,21.33
2019-03-23T14:49:18.375Z,22.17
2019-03-23T14:51:50.510Z,22.10
2019-03-23T14:54:22.721Z,22.53
2019-03-23T14:56:55.521Z,22.50
2019-03-23T14:59:27.788Z,22.60
2019-03-23T15:01:59.825Z,23.40
2019-03-23T15:04:31.846Z,23.27
2019-03-23T15:07:04.428Z,22.67
2019-03-23T15:09:35.938Z,22.90
2019-03-23T15:12:15.048Z,24.97
2019-03-23T15:14:41.839Z,24.53
2019-03-23T15:17:13.928Z,24.57
2019-03-23T15:19:45.941Z,24.53
2019-03-23T15:22:18.401Z,24.30
2019-03-23T15:24:50.385Z,24.00
2019-03-23T15:27:22.242Z,23.40
2019-03-23T15:29:54.773Z,22.93
2019-03-23T15:32:26.489Z,21.63
2019-03-23T15:34:58.249Z,23.47
2019-03-23T15:37:29.599Z,23.87
2019-03-23T15:40:01.766Z,23.97
2019-03-23T15:42:33.333Z,23.53
2019-03-23T15:45:04.732Z,24.30
2019-03-23T15:47:36.033Z,26.80
2019-03-23T15:50:08.500Z,28.10
2019-03-23T15:52:39.554Z,25.20
2019-03-23T15:55:10.991Z,23.23
2019-03-23T15:57:42.259Z,24.13
2019-03-23T16:00:13.691Z,24.23
2019-03-23T16:02:44.939Z,23.97
2019-03-23T16:05:16.360Z,23.60
2019-03-23T16:07:48.570Z,25.27
2019-03-23T16:10:21.850Z,25.27
2019-03-23T16:12:54.021Z,24.57
2019-03-23T16:15:26.670Z,26.30
2019-03-23T16:17:58.775Z,25.80
2019-03-23T16:20:30.432Z,24.90
2019-03-23T16:23:02.665Z,26.07
2019-03-23T16:25:35.894Z,25.33
2019-03-23T16:28:08.129Z,23.43
2019-03-23T16:30:40.841Z,24.13
2019-03-23T16:33:13.081Z,23.43
2019-03-23T16:35:49.869Z,24.93
2019-03-23T16:38:22.241Z,24.93
2019-03-23T16:40:55.283Z,25.33
2019-03-23T16:43:27.245Z,25.63
2019-03-23T16:46:00.243Z,27.53
2019-03-23T16:48:32.709Z,25.57
2019-03-23T16:51:04.749Z,26.97
2019-03-23T16:53:36.768Z,26.13
2019-03-23T16:56:09.681Z,26.60
2019-03-23T16:58:43.224Z,27.57
2019-03-23T17:01:17.965Z,28.97
2019-03-23T17:03:51.221Z,30.23
2019-03-23T17:06:23.647Z,28.43
2019-03-23T17:08:55.937Z,31.80
2019-03-23T17:11:28.921Z,32.07
2019-03-23T17:14:01.810Z,30.73
2019-03-23T17:16:34.984Z,35.13
2019-03-23T17:19:07.444Z,44.97
2019-03-23T17:21:40.728Z,48.17
2019-03-23T17:24:13.635Z,53.50
2019-03-23T17:26:46.695Z,41.87
2019-03-23T17:29:19.201Z,36.20
2019-03-23T17:31:52.362Z,41.67
2019-03-23T17:34:25.227Z,48.20
2019-03-23T17:36:58.964Z,49.87
2019-03-23T17:39:31.477Z,33.37
2019-03-23T17:42:05.286Z,42.07
2019-03-23T17:44:38.871Z,46.63
2019-03-23T17:47:11.599Z,41.43
2019-03-23T17:49:43.688Z,59.20
2019-03-23T17:52:16.201Z,61.47
2019-03-23T17:54:48.655Z,48.83
2019-03-23T17:57:23.141Z,42.43
2019-03-23T17:59:57.620Z,47.30
2019-03-23T18:02:31.080Z,46.90
2019-03-23T18:05:04.218Z,44.93
2019-03-23T18:07:37.005Z,38.87
2019-03-23T18:10:11.652Z,43.20
2019-03-23T18:12:45.127Z,51.73
2019-03-23T18:15:18.307Z,45.40
2019-03-23T18:17:51.263Z,45.60
2019-03-23T18:20:23.407Z,43.43
2019-03-23T18:22:55.462Z,43.63
2019-03-23T18:25:27.495Z,41.80
2019-03-23T18:27:59.461Z,41.93
2019-03-23T18:30:41.517Z,39.37
2019-03-23T18:33:13.833Z,41.67
2019-03-23T18:35:45.821Z,46.93
2019-03-23T18:38:17.762Z,42.33
2019-03-23T18:40:49.936Z,39.53
2019-03-23T18:43:27.393Z,40.73
2019-03-23T18:45:55.609Z,39.60
2019-03-23T18:48:27.767Z,33.20
2019-03-23T18:50:59.803Z,39.77
2019-03-23T18:53:32.095Z,38.80
2019-03-23T18:56:04.180Z,37.70
2019-03-23T18:58:36.209Z,47.10
2019-03-23T19:01:08.468Z,44.17
2019-03-23T19:03:40.584Z,43.17
2019-03-23T19:06:13.819Z,41.77
2019-03-23T19:08:45.615Z,36.00
2019-03-23T19:11:17.607Z,53.83
2019-03-23T19:13:50.179Z,44.80
2019-03-23T19:16:22.290Z,29.40
2019-03-23T19:18:54.370Z,31.67
2019-03-23T19:21:26.347Z,29.90
2019-03-23T19:23:58.545Z,49.60
2019-03-23T19:26:30.688Z,36.37
2019-03-23T19:29:03.365Z,36.43
2019-03-23T19:31:35.655Z,35.40
2019-03-23T19:34:07.811Z,37.67
2019-03-23T19:36:40.141Z,40.50
2019-03-23T19:39:15.329Z,44.23
2019-03-23T19:41:47.351Z,47.00
2019-03-23T19:44:19.310Z,58.27
2019-03-23T19:46:52.470Z,57.83
2019-03-23T19:49:25.589Z,59.93
2019-03-23T19:51:57.500Z,59.80
2019-03-23T19:54:29.758Z,69.63
2019-03-23T19:57:01.937Z,67.20
2019-03-23T19:59:33.873Z,64.63
2019-03-23T20:02:05.962Z,75.10
2019-03-23T20:04:37.747Z,65.20
2019-03-23T20:07:09.734Z,63.37
2019-03-23T20:09:41.505Z,67.00
2019-03-23T20:12:13.569Z,62.40
2019-03-23T20:14:45.753Z,69.83
2019-03-23T20:17:17.826Z,72.17
2019-03-23T20:19:52.544Z,65.70
2019-03-23T20:22:24.379Z,73.83
2019-03-23T20:24:56.259Z,73.30
2019-03-23T20:27:28.100Z,77.20
2019-03-23T20:30:00.375Z,62.77
2019-03-23T20:32:33.302Z,54.47
2019-03-23T20:35:05.845Z,52.00
2019-03-23T20:37:38.972Z,54.43
2019-03-23T20:40:13.359Z,56.13
2019-03-23T20:42:46.938Z,58.37
2019-03-23T20:45:40.269Z,52.97
2019-03-23T20:48:13.190Z,53.43
2019-03-23T20:50:45.513Z,50.03
2019-03-23T20:53:20.331Z,49.97
2019-03-23T20:55:53.161Z,41.27
2019-03-23T20:58:26.684Z,44.63
2019-03-23T21:01:00.651Z,45.93
2019-03-23T21:03:33.655Z,48.33
2019-03-23T21:06:06.516Z,46.87
2019-03-23T21:08:40.827Z,41.77
2019-03-23T21:11:14.124Z,46.03
2019-03-23T21:13:47.923Z,41.73
2019-03-23T21:16:21.895Z,38.90
2019-03-23T21:18:55.891Z,48.53
2019-03-23T21:21:28.766Z,39.40
2019-03-23T21:24:01.419Z,44.63
2019-03-23T21:26:34.363Z,41.30
2019-03-23T21:29:07.093Z,46.83
2019-03-23T21:31:39.927Z,44.27
2019-03-23T21:34:14.441Z,40.17
2019-03-23T21:36:46.779Z,43.40
2019-03-23T21:39:19.322Z,38.43
2019-03-23T21:41:52.046Z,41.53
2019-03-23T21:44:30.994Z,50.10
2019-03-23T21:47:02.543Z,41.50
2019-03-23T21:49:34.799Z,45.20
2019-03-23T21:52:07.488Z,39.50
2019-03-23T21:54:40.509Z,39.70
2019-03-23T21:57:13.029Z,40.50
2019-03-23T21:59:45.162Z,40.73
2019-03-23T22:02:18.926Z,40.13
2019-03-23T22:04:50.362Z,36.50
2019-03-23T22:07:22.721Z,34.40
2019-03-23T22:09:57.646Z,35.73
2019-03-23T22:12:29.632Z,40.90
2019-03-23T22:15:02.659Z,35.97
2019-03-23T22:17:35.035Z,38.30
2019-03-23T22:20:08.186Z,35.00
2019-03-23T22:22:40.091Z,40.27
2019-03-23T22:25:12.791Z,41.97
2019-03-23T22:27:44.127Z,40.40
2019-03-23T22:30:16.947Z,40.70
2019-03-23T22:32:48.494Z,45.77
2019-03-23T22:35:19.710Z,48.80
2019-03-23T22:37:51.148Z,40.80
2019-03-23T22:40:22.823Z,47.43
2019-03-23T22:42:54.078Z,46.13
2019-03-23T22:45:26.801Z,39.73
2019-03-23T22:47:58.900Z,37.97
2019-03-23T22:50:30.542Z,41.47
2019-03-23T22:53:02.584Z,38.03
2019-03-23T22:55:34.326Z,40.63
2019-03-23T22:58:05.863Z,33.80
2019-03-23T23:00:45.430Z,43.70
2019-03-23T23:03:18.163Z,36.40
2019-03-23T23:05:50.517Z,44.00
2019-03-23T23:08:23.248Z,36.63
2019-03-23T23:10:55.276Z,48.13
2019-03-23T23:13:27.039Z,47.60
2019-03-23T23:15:58.448Z,45.17
2019-03-23T23:18:33.064Z,40.60
2019-03-23T23:21:04.911Z,44.23
2019-03-23T23:23:39.556Z,48.90
2019-03-23T23:26:14.994Z,48.63
2019-03-23T23:28:47.548Z,42.23
2019-03-23T23:31:19.551Z,49.00
2019-03-23T23:33:51.689Z,47.97
2019-03-23T23:36:23.306Z,50.97
2019-03-23T23:38:55.518Z,53.83
2019-03-23T23:41:29.331Z,52.23
2019-03-23T23:44:02.318Z,49.37
2019-03-23T23:46:34.481Z,47.80
2019-03-23T23:49:07.269Z,48.83
2019-03-23T23:51:49.797Z,48.80
2019-03-23T23:54:13.916Z,55.70
2019-03-23T23:56:46.467Z,55.20
2019-03-23T23:59:19.746Z,51.07
